Time,TemperatureF,DewpointF,PressureIn,WindDirection,WindDirectionDegrees,WindSpeedMPH,WindSpeedGustMPH,Humidity,HourlyPrecipIn,Conditions,Clouds,dailyrainin,SoftwareType,DateUTC
2013-05-29 00:03:00,47.5,46.9,29.90,South,173,9.0,18.0,98,0.00,,,0.00,meteohub,2013-05-28 11:03:00,
2013-05-29 00:08:00,47.5,46.9,29.90,ESE,116,4.0,18.0,98,0.00,,,0.00,meteohub,2013-05-28 11:08:00,
2013-05-29 00:13:00,47.5,46.8,29.91,SSW,212,11.0,18.0,97,0.00,,,0.00,meteohub,2013-05-28 11:13:00,
2013-05-29 00:18:00,47.5,46.8,29.90,SE,141,4.0,16.0,97,0.00,,,0.00,meteohub,2013-05-28 11:18:00,
2013-05-29 00:23:00,47.5,46.8,29.91,WSW,240,3.0,16.0,97,0.00,,,0.00,meteohub,2013-05-28 11:23:00,
2013-05-29 00:28:00,47.5,46.8,29.91,SSW,201,10.0,16.0,97,0.00,,,0.00,meteohub,2013-05-28 11:28:00,
2013-05-29 00:33:00,47.5,46.8,29.91,South,175,5.0,16.0,97,0.00,,,0.00,meteohub,2013-05-28 11:33:00,
2013-05-29 00:38:00,47.5,46.8,29.90,SSE,165,4.0,16.0,97,0.00,,,0.00,meteohub,2013-05-28 11:38:00,
2013-05-29 00:43:00,47.7,46.9,29.91,SSW,194,6.0,16.0,97,0.00,,,0.00,meteohub,2013-05-28 11:43:00,
2013-05-29 00:48:00,47.7,46.6,29.91,SSE,160,5.0,15.0,96,0.00,,,0.00,meteohub,2013-05-28 11:48:00,
2013-05-29 00:53:00,47.7,46.6,29.91,SSW,203,3.0,15.0,96,0.00,,,0.00,meteohub,2013-05-28 11:53:00,
2013-05-29 00:58:00,47.7,46.6,29.91,SW,218,7.0,15.0,96,0.00,,,0.00,meteohub,2013-05-28 11:58:00,
2013-05-29 01:03:00,47.8,46.8,29.91,SW,231,3.0,15.0,96,0.00,,,0.00,meteohub,2013-05-28 12:03:00,
2013-05-29 01:08:00,47.8,46.8,29.91,SW,219,7.0,15.0,96,0.00,,,0.00,meteohub,2013-05-28 12:08:00,
2013-05-29 01:13:00,47.8,46.8,29.91,SSW,196,11.0,16.0,96,0.00,,,0.00,meteohub,2013-05-28 12:13:00,
2013-05-29 01:18:00,47.8,46.8,29.91,East,97,8.0,16.0,96,0.00,,,0.00,meteohub,2013-05-28 12:18:00,
2013-05-29 01:23:00,48.0,46.9,29.91,SSE,148,7.0,16.0,96,0.00,,,0.00,meteohub,2013-05-28 12:23:00,
2013-05-29 01:28:00,48.0,46.9,29.91,SSW,205,3.0,16.0,96,0.00,,,0.00,meteohub,2013-05-28 12:28:00,
2013-05-29 01:33:00,48.0,46.9,29.91,WSW,256,5.0,16.0,96,0.00,,,0.00,meteohub,2013-05-28 12:33:00,
2013-05-29 01:38:00,48.0,46.9,29.91,South,186,2.0,13.0,96,0.00,,,0.00,meteohub,2013-05-28 12:38:00,
2013-05-29 01:43:00,48.0,46.9,29.91,SSW,205,7.0,13.0,96,0.00,,,0.00,meteohub,2013-05-28 12:43:00,
2013-05-29 01:48:00,48.2,46.8,29.91,SSW,201,5.0,14.0,95,0.00,,,0.00,meteohub,2013-05-28 12:48:00,
2013-05-29 01:53:00,48.4,46.9,29.91,SSE,147,13.0,14.0,95,0.00,,,0.00,meteohub,2013-05-28 12:53:00,
2013-05-29 01:59:00,48.4,46.9,29.91,SSW,203,6.0,14.0,95,0.00,,,0.00,meteohub,2013-05-28 12:59:00,
2013-05-29 02:04:00,48.4,46.9,29.91,SW,228,6.0,15.0,95,0.00,,,0.00,meteohub,2013-05-28 13:04:00,
2013-05-29 02:09:00,48.4,46.9,29.91,SW,222,11.0,15.0,95,0.00,,,0.00,meteohub,2013-05-28 13:09:00,
2013-05-29 02:14:00,48.6,46.9,29.91,SW,227,4.0,15.0,94,0.00,,,0.00,meteohub,2013-05-28 13:14:00,
2013-05-29 02:19:00,48.7,47.3,29.91,SE,143,9.0,17.0,95,0.00,,,0.00,meteohub,2013-05-28 13:19:00,
2013-05-29 02:24:00,48.7,47.1,29.91,WSW,238,10.0,17.0,94,0.00,,,0.00,meteohub,2013-05-28 13:24:00,
2013-05-29 02:29:00,48.7,47.1,29.91,SSW,203,8.0,18.0,94,0.00,,,0.00,meteohub,2013-05-28 13:29:00,
2013-05-29 02:34:00,48.7,47.3,29.92,SW,224,16.0,21.0,95,0.00,,,0.00,meteohub,2013-05-28 13:34:00,
2013-05-29 02:39:00,48.6,47.1,29.92,South,188,12.0,21.0,95,0.00,,,0.00,meteohub,2013-05-28 13:39:00,
2013-05-29 02:44:00,48.6,47.5,29.92,SW,228,15.0,21.0,96,0.00,,,0.00,meteohub,2013-05-28 13:44:00,
2013-05-29 02:49:00,48.4,47.3,29.92,SSW,198,10.0,21.0,96,0.00,,,0.00,meteohub,2013-05-28 13:49:00,
2013-05-29 02:54:00,48.4,47.3,29.92,SSW,212,16.0,21.0,96,0.00,,,0.00,meteohub,2013-05-28 13:54:00,
2013-05-29 02:59:00,48.4,47.5,29.92,SW,229,20.0,20.0,97,0.00,,,0.00,meteohub,2013-05-28 13:59:00,
2013-05-29 03:04:00,48.4,47.5,29.92,SW,214,19.0,20.0,97,0.00,,,0.00,meteohub,2013-05-28 14:04:00,
2013-05-29 03:09:00,48.4,47.5,29.93,SSW,213,11.0,20.0,97,0.00,,,0.00,meteohub,2013-05-28 14:09:00,
2013-05-29 03:14:00,48.4,47.8,29.93,SSW,208,5.0,20.0,98,0.00,,,0.00,meteohub,2013-05-28 14:14:00,
2013-05-29 03:19:00,48.4,47.8,29.93,SW,219,11.0,19.0,98,0.00,,,0.00,meteohub,2013-05-28 14:19:00,
2013-05-29 03:24:00,48.6,48.0,29.93,SSW,209,19.0,19.0,98,0.00,,,0.00,meteohub,2013-05-28 14:24:00,
2013-05-29 03:29:00,48.4,47.8,29.93,SW,219,16.0,21.0,98,0.00,,,0.00,meteohub,2013-05-28 14:29:00,
2013-05-29 03:34:00,48.4,47.8,29.93,SW,214,12.0,21.0,98,0.00,,,0.00,meteohub,2013-05-28 14:34:00,
2013-05-29 03:39:00,48.4,47.8,29.93,SW,221,7.0,21.0,98,0.00,,,0.00,meteohub,2013-05-28 14:39:00,
2013-05-29 03:44:00,48.4,48.2,29.93,South,170,14.0,22.0,99,0.00,,,0.00,meteohub,2013-05-28 14:44:00,
2013-05-29 03:50:00,48.4,48.2,29.93,SW,214,15.0,22.0,99,0.00,,,0.00,meteohub,2013-05-28 14:50:00,
2013-05-29 03:55:00,48.4,48.2,29.93,WSW,238,13.0,22.0,99,0.00,,,0.00,meteohub,2013-05-28 14:55:00,
2013-05-29 04:00:00,48.4,48.2,29.93,SSW,192,8.0,24.0,99,0.00,,,0.00,meteohub,2013-05-28 15:00:00,
2013-05-29 04:05:00,48.4,48.2,29.93,WSW,237,18.0,24.0,99,0.00,,,0.00,meteohub,2013-05-28 15:05:00,
2013-05-29 04:10:00,48.6,48.4,29.94,SW,217,19.0,22.0,99,0.00,,,0.00,meteohub,2013-05-28 15:10:00,
2013-05-29 04:15:00,48.4,48.2,29.94,SW,223,8.0,19.0,99,0.00,,,0.00,meteohub,2013-05-28 15:15:00,
2013-05-29 04:20:00,48.6,48.4,29.94,SSW,207,11.0,22.0,99,0.00,,,0.00,meteohub,2013-05-28 15:20:00,
2013-05-29 04:25:00,48.6,48.4,29.94,SW,220,7.0,22.0,99,0.00,,,0.00,meteohub,2013-05-28 15:25:00,
2013-05-29 04:30:00,48.6,48.4,29.94,SSW,212,10.0,22.0,99,0.00,,,0.00,meteohub,2013-05-28 15:30:00,
2013-05-29 04:35:00,48.6,48.4,29.94,NE,53,9.0,20.0,99,0.00,,,0.00,meteohub,2013-05-28 15:35:00,
2013-05-29 04:40:00,48.6,48.4,29.94,WSW,240,8.0,19.0,99,0.00,,,0.00,meteohub,2013-05-28 15:40:00,
2013-05-29 04:45:00,48.4,48.2,29.94,SW,217,10.0,19.0,99,0.00,,,0.00,meteohub,2013-05-28 15:45:00,
2013-05-29 04:50:00,48.4,48.2,29.94,SSE,167,6.0,19.0,99,0.00,,,0.00,meteohub,2013-05-28 15:50:00,
2013-05-29 04:55:00,47.8,47.3,29.94,SW,233,13.0,17.0,98,0.00,,,0.00,meteohub,2013-05-28 15:55:00,
2013-05-29 05:00:00,48.0,47.8,29.94,WSW,252,6.0,17.0,99,0.00,,,0.00,meteohub,2013-05-28 16:00:00,
2013-05-29 05:05:00,48.0,47.8,29.94,ESE,113,7.0,17.0,99,0.00,,,0.00,meteohub,2013-05-28 16:05:00,
2013-05-29 05:10:00,48.0,47.8,29.95,West,268,7.0,16.0,99,0.00,,,0.00,meteohub,2013-05-28 16:10:00,
2013-05-29 05:15:00,47.8,47.7,29.94,SE,137,10.0,17.0,99,0.00,,,0.00,meteohub,2013-05-28 16:15:00,
2013-05-29 05:20:00,48.0,47.8,29.95,SW,232,7.0,17.0,99,0.00,,,0.00,meteohub,2013-05-28 16:20:00,
2013-05-29 05:25:00,48.0,47.8,29.95,SE,129,4.0,17.0,99,0.00,,,0.00,meteohub,2013-05-28 16:25:00,
2013-05-29 05:31:00,48.4,48.2,29.95,SSW,207,13.0,14.0,99,0.00,,,0.00,meteohub,2013-05-28 16:31:00,
2013-05-29 05:36:00,48.4,47.8,29.95,WSW,241,8.0,16.0,98,0.00,,,0.00,meteohub,2013-05-28 16:36:00,
2013-05-29 05:41:00,48.6,48.0,29.95,SW,222,8.0,16.0,98,0.00,,,0.00,meteohub,2013-05-28 16:41:00,
2013-05-29 05:46:00,48.6,48.0,29.95,SW,229,9.0,20.0,98,0.00,,,0.00,meteohub,2013-05-28 16:46:00,
2013-05-29 05:51:00,48.7,47.7,29.95,SW,219,9.0,20.0,96,0.00,,,0.00,meteohub,2013-05-28 16:51:00,
2013-05-29 05:56:00,48.9,47.8,29.95,SE,142,7.0,20.0,96,0.00,,,0.00,meteohub,2013-05-28 16:56:00,
2013-05-29 06:01:00,49.5,48.4,29.95,SSW,203,11.0,18.0,96,0.00,,,0.00,meteohub,2013-05-28 17:01:00,
2013-05-29 06:06:00,49.6,48.7,29.96,SW,223,12.0,18.0,97,0.00,,,0.00,meteohub,2013-05-28 17:06:00,
2013-05-29 06:11:00,49.6,48.2,29.96,WSW,238,14.0,17.0,95,0.00,,,0.00,meteohub,2013-05-28 17:11:00,
2013-05-29 06:16:00,49.6,48.2,29.96,SW,230,8.0,19.0,95,0.00,,,0.00,meteohub,2013-05-28 17:16:00,
2013-05-29 06:21:00,49.8,48.7,29.96,SW,236,6.0,19.0,96,0.00,,,0.00,meteohub,2013-05-28 17:21:00,
2013-05-29 06:26:00,49.5,47.8,29.96,SW,223,12.0,19.0,94,0.00,,,0.00,meteohub,2013-05-28 17:26:00,
2013-05-29 06:31:00,49.3,48.2,29.96,South,186,10.0,13.0,96,0.00,,,0.00,meteohub,2013-05-28 17:31:00,
2013-05-29 06:36:00,48.7,47.7,29.96,East,86,4.0,13.0,96,0.00,,,0.00,meteohub,2013-05-28 17:36:00,
2013-05-29 06:41:00,48.7,48.2,29.96,SW,232,8.0,13.0,98,0.00,,,0.00,meteohub,2013-05-28 17:41:00,
2013-05-29 06:46:00,48.7,48.2,29.96,SW,221,9.0,14.0,98,0.00,,,0.00,meteohub,2013-05-28 17:46:00,
2013-05-29 06:52:00,48.7,48.2,29.96,SW,236,9.0,14.0,98,0.00,,,0.00,meteohub,2013-05-28 17:52:00,
2013-05-29 06:57:00,48.9,48.7,29.96,SW,216,9.0,14.0,99,0.00,,,0.00,meteohub,2013-05-28 17:57:00,
2013-05-29 07:02:00,48.9,48.7,29.97,South,184,5.0,12.0,99,0.00,,,0.00,meteohub,2013-05-28 18:02:00,
2013-05-29 07:07:00,48.9,48.7,29.97,SSW,200,5.0,12.0,99,0.00,,,0.00,meteohub,2013-05-28 18:07:00,
2013-05-29 07:12:00,49.1,48.9,29.97,WSW,240,6.0,10.0,99,0.00,,,0.00,meteohub,2013-05-28 18:12:00,
2013-05-29 07:17:00,49.1,48.9,29.96,SW,232,6.0,13.0,99,0.00,,,0.00,meteohub,2013-05-28 18:17:00,
2013-05-29 07:22:00,49.1,48.6,29.97,SW,215,8.0,13.0,98,0.00,,,0.00,meteohub,2013-05-28 18:22:00,
2013-05-29 07:27:00,49.5,48.9,29.97,WNW,290,6.0,16.0,98,0.00,,,0.00,meteohub,2013-05-28 18:27:00,
2013-05-29 07:32:00,50.2,49.6,29.97,SW,221,8.0,16.0,98,0.00,,,0.00,meteohub,2013-05-28 18:32:00,
2013-05-29 07:37:00,50.4,48.9,29.97,WSW,245,8.0,15.0,95,0.00,,,0.00,meteohub,2013-05-28 18:37:00,
2013-05-29 07:42:00,50.4,49.3,29.97,WSW,250,12.0,15.0,96,0.00,,,0.00,meteohub,2013-05-28 18:42:00,
2013-05-29 07:47:00,50.2,48.6,29.97,West,262,3.0,15.0,94,0.00,,,0.00,meteohub,2013-05-28 18:47:00,
2013-05-29 07:52:00,50.4,48.4,29.97,SW,221,11.0,13.0,93,0.00,,,0.00,meteohub,2013-05-28 18:52:00,
2013-05-29 07:57:00,50.5,48.0,29.97,SW,224,9.0,14.0,91,0.00,,,0.00,meteohub,2013-05-28 18:57:00,
2013-05-29 08:02:00,51.1,48.9,29.97,WNW,285,6.0,18.0,92,0.00,,,0.00,meteohub,2013-05-28 19:02:00,
2013-05-29 08:07:00,51.6,49.5,29.97,SSW,205,12.0,18.0,92,0.00,,,0.00,meteohub,2013-05-28 19:07:00,
2013-05-29 08:12:00,51.4,48.6,29.97,SW,229,13.0,18.0,90,0.00,,,0.00,meteohub,2013-05-28 19:12:00,
2013-05-29 08:17:00,52.0,49.6,29.98,WSW,248,11.0,20.0,92,0.00,,,0.00,meteohub,2013-05-28 19:17:00,
2013-05-29 08:22:00,52.2,49.8,29.98,SW,217,6.0,20.0,92,0.00,,,0.00,meteohub,2013-05-28 19:22:00,
2013-05-29 08:27:00,52.3,49.3,29.97,SSW,195,8.0,19.0,89,0.00,,,0.00,meteohub,2013-05-28 19:27:00,
2013-05-29 08:32:00,52.0,48.2,29.97,SW,228,12.0,17.0,87,0.00,,,0.00,meteohub,2013-05-28 19:32:00,
2013-05-29 08:38:00,52.3,49.5,29.98,SSW,197,6.0,19.0,90,0.00,,,0.00,meteohub,2013-05-28 19:38:00,
2013-05-29 08:43:00,52.9,50.0,29.97,WNW,289,16.0,19.0,90,0.00,,,0.00,meteohub,2013-05-28 19:43:00,
2013-05-29 08:48:00,52.9,49.5,29.97,SW,233,12.0,19.0,88,0.00,,,0.00,meteohub,2013-05-28 19:48:00,
2013-05-29 08:53:00,53.1,49.3,29.98,SW,221,13.0,19.0,87,0.00,,,0.00,meteohub,2013-05-28 19:53:00,
2013-05-29 08:58:00,53.2,49.8,29.98,SW,225,15.0,19.0,88,0.00,,,0.00,meteohub,2013-05-28 19:58:00,
2013-05-29 09:03:00,53.4,50.0,29.98,WSW,248,6.0,22.0,88,0.00,,,0.00,meteohub,2013-05-28 20:03:00,
2013-05-29 09:08:00,53.4,49.6,29.98,South,191,11.0,22.0,87,0.00,,,0.00,meteohub,2013-05-28 20:08:00,
2013-05-29 09:13:00,53.8,50.0,29.98,SW,220,11.0,22.0,87,0.00,,,0.00,meteohub,2013-05-28 20:13:00,
2013-05-29 09:18:00,54.7,50.9,29.97,SW,216,10.0,21.0,87,0.00,,,0.00,meteohub,2013-05-28 20:18:00,
2013-05-29 09:23:00,54.1,49.8,29.97,West,269,6.0,19.0,85,0.00,,,0.00,meteohub,2013-05-28 20:23:00,
2013-05-29 09:28:00,53.8,49.6,29.97,SSE,160,6.0,19.0,86,0.00,,,0.00,meteohub,2013-05-28 20:28:00,
2013-05-29 09:33:00,52.7,47.3,29.98,SW,217,16.0,24.0,82,0.00,,,0.00,meteohub,2013-05-28 20:33:00,
2013-05-29 09:38:00,52.5,47.1,29.98,West,268,6.0,24.0,82,0.00,,,0.00,meteohub,2013-05-28 20:38:00,
2013-05-29 09:43:00,52.5,47.5,29.98,WSW,245,14.0,24.0,83,0.00,,,0.00,meteohub,2013-05-28 20:43:00,
2013-05-29 09:48:00,53.1,48.4,29.98,SW,227,8.0,23.0,84,0.00,,,0.00,meteohub,2013-05-28 20:48:00,
2013-05-29 09:53:00,53.4,48.0,29.97,West,265,11.0,23.0,82,0.00,,,0.00,meteohub,2013-05-28 20:53:00,
2013-05-29 09:59:00,55.2,50.2,29.97,WSW,240,20.0,23.0,83,0.00,,,0.00,meteohub,2013-05-28 20:59:00,
2013-05-29 10:04:00,55.0,49.3,29.97,WSW,238,9.0,21.0,81,0.00,,,0.00,meteohub,2013-05-28 21:04:00,
2013-05-29 10:09:00,55.4,49.6,29.97,SSE,155,9.0,23.0,81,0.00,,,0.00,meteohub,2013-05-28 21:09:00,
2013-05-29 10:14:00,56.7,50.2,29.97,SW,235,12.0,23.0,79,0.00,,,0.00,meteohub,2013-05-28 21:14:00,
2013-05-29 10:19:00,57.0,48.7,29.97,South,182,6.0,23.0,74,0.00,,,0.00,meteohub,2013-05-28 21:19:00,
2013-05-29 10:24:00,57.0,49.1,29.97,SSE,162,9.0,20.0,75,0.00,,,0.00,meteohub,2013-05-28 21:24:00,
2013-05-29 10:29:00,56.7,49.5,29.97,West,267,23.0,23.0,77,0.00,,,0.00,meteohub,2013-05-28 21:29:00,
2013-05-29 10:34:00,55.8,48.4,29.97,SSW,212,28.0,28.0,76,0.00,,,0.00,meteohub,2013-05-28 21:34:00,
2013-05-29 10:39:00,55.6,48.9,29.97,West,273,17.0,28.0,78,0.00,,,0.00,meteohub,2013-05-28 21:39:00,
2013-05-29 10:44:00,55.6,46.8,29.97,West,264,24.0,30.0,72,0.00,,,0.00,meteohub,2013-05-28 21:44:00,
2013-05-29 10:49:00,55.2,47.1,29.97,West,276,25.0,31.0,74,0.00,,,0.00,meteohub,2013-05-28 21:49:00,
2013-05-29 10:54:00,54.9,46.4,29.96,West,275,26.0,31.0,73,0.01,,,0.01,meteohub,2013-05-28 21:54:00,
2013-05-29 10:59:00,55.2,46.4,29.96,SW,230,15.0,31.0,72,0.01,,,0.01,meteohub,2013-05-28 21:59:00,
2013-05-29 11:04:00,55.2,46.4,29.96,WSW,245,25.0,33.0,72,0.01,,,0.01,meteohub,2013-05-28 22:04:00,
2013-05-29 11:09:00,55.6,47.1,29.96,WSW,253,16.0,33.0,73,0.01,,,0.01,meteohub,2013-05-28 22:09:00,
2013-05-29 11:14:00,56.1,48.0,29.96,South,182,6.0,33.0,74,0.01,,,0.01,meteohub,2013-05-28 22:14:00,
2013-05-29 11:19:00,56.1,46.0,29.96,West,264,19.0,26.0,69,0.01,,,0.01,meteohub,2013-05-28 22:19:00,
2013-05-29 11:24:00,55.8,45.7,29.96,WSW,257,12.0,30.0,69,0.01,,,0.01,meteohub,2013-05-28 22:24:00,
2013-05-29 11:29:00,55.6,46.4,29.96,SW,228,13.0,30.0,71,0.01,,,0.01,meteohub,2013-05-28 22:29:00,
2013-05-29 11:35:00,55.6,46.8,29.96,WSW,245,7.0,30.0,72,0.01,,,0.01,meteohub,2013-05-28 22:35:00,
2013-05-29 11:40:00,55.6,46.0,29.96,SW,221,11.0,29.0,70,0.01,,,0.01,meteohub,2013-05-28 22:40:00,
2013-05-29 11:45:00,55.2,44.8,29.96,West,270,16.0,26.0,68,0.01,,,0.01,meteohub,2013-05-28 22:45:00,
2013-05-29 11:50:00,55.6,46.4,29.96,SSW,211,6.0,25.0,71,0.00,,,0.01,meteohub,2013-05-28 22:50:00,
2013-05-29 11:55:00,55.6,46.4,29.96,WSW,240,18.0,29.0,71,0.00,,,0.01,meteohub,2013-05-28 22:55:00,
2013-05-29 12:00:00,55.2,45.1,29.96,WSW,257,24.0,29.0,69,0.00,,,0.01,meteohub,2013-05-28 23:00:00,
2013-05-29 12:05:00,55.2,46.0,29.95,West,264,20.0,31.0,71,0.00,,,0.01,meteohub,2013-05-28 23:05:00,
2013-05-29 12:10:00,55.6,46.4,29.95,WSW,240,23.0,31.0,71,0.00,,,0.01,meteohub,2013-05-28 23:10:00,
2013-05-29 12:15:00,55.2,45.7,29.95,West,274,18.0,31.0,70,0.00,,,0.01,meteohub,2013-05-28 23:15:00,
2013-05-29 12:20:00,55.2,46.4,29.96,WSW,255,16.0,27.0,72,0.00,,,0.01,meteohub,2013-05-28 23:20:00,
2013-05-29 12:25:00,55.9,45.9,29.95,West,262,14.0,27.0,69,0.00,,,0.01,meteohub,2013-05-28 23:25:00,
2013-05-29 12:30:00,56.1,46.4,29.95,West,273,13.0,27.0,70,0.00,,,0.01,meteohub,2013-05-28 23:30:00,
2013-05-29 12:35:00,56.1,47.3,29.95,West,268,20.0,28.0,72,0.00,,,0.01,meteohub,2013-05-28 23:35:00,
2013-05-29 12:40:00,55.9,46.8,29.95,West,261,21.0,28.0,71,0.00,,,0.01,meteohub,2013-05-28 23:40:00,
2013-05-29 12:45:00,55.6,45.5,29.95,West,262,23.0,30.0,69,0.00,,,0.01,meteohub,2013-05-28 23:45:00,
2013-05-29 12:50:00,55.0,44.6,29.95,WSW,257,17.0,30.0,68,0.00,,,0.01,meteohub,2013-05-28 23:50:00,
2013-05-29 12:55:00,55.6,44.8,29.95,West,260,22.0,30.0,67,0.00,,,0.01,meteohub,2013-05-28 23:55:00,
2013-05-29 13:00:00,55.9,46.8,29.94,West,259,3.0,26.0,71,0.00,,,0.01,meteohub,2013-05-29 00:00:00,
2013-05-29 13:06:00,56.1,45.7,29.94,West,264,18.0,26.0,68,0.00,,,0.00,meteohub,2013-05-29 00:06:00,
2013-05-29 13:11:00,55.6,46.0,29.94,West,268,23.0,23.0,70,0.00,,,0.00,meteohub,2013-05-29 00:11:00,
2013-05-29 13:16:00,55.2,46.0,29.94,West,264,23.0,26.0,71,0.00,,,0.00,meteohub,2013-05-29 00:16:00,
2013-05-29 13:21:00,55.0,45.5,29.94,West,266,19.0,26.0,70,0.00,,,0.00,meteohub,2013-05-29 00:21:00,
2013-05-29 13:26:00,55.4,47.3,29.94,WSW,257,16.0,26.0,74,0.00,,,0.00,meteohub,2013-05-29 00:26:00,
2013-05-29 13:31:00,55.6,46.0,29.93,West,278,17.0,23.0,70,0.00,,,0.00,meteohub,2013-05-29 00:31:00,
2013-05-29 13:36:00,55.2,46.4,29.93,West,264,15.0,22.0,72,0.00,,,0.00,meteohub,2013-05-29 00:36:00,
2013-05-29 13:41:00,55.6,45.1,29.93,WSW,250,11.0,22.0,68,0.00,,,0.00,meteohub,2013-05-29 00:41:00,
2013-05-29 13:46:00,55.6,46.4,29.93,SW,231,5.0,21.0,71,0.00,,,0.00,meteohub,2013-05-29 00:46:00,
2013-05-29 13:51:00,55.6,46.0,29.92,WSW,255,18.0,19.0,70,0.00,,,0.00,meteohub,2013-05-29 00:51:00,
2013-05-29 13:56:00,55.8,45.3,29.92,West,278,7.0,21.0,68,0.00,,,0.00,meteohub,2013-05-29 00:56:00,
2013-05-29 14:01:00,55.6,45.5,29.92,WSW,255,18.0,23.0,69,0.00,,,0.00,meteohub,2013-05-29 01:01:00,
2013-05-29 14:06:00,55.2,44.4,29.92,West,277,16.0,23.0,67,0.00,,,0.00,meteohub,2013-05-29 01:06:00,
2013-05-29 14:11:00,55.0,45.5,29.92,West,264,12.0,24.0,70,0.00,,,0.00,meteohub,2013-05-29 01:11:00,
2013-05-29 14:16:00,55.0,45.5,29.91,WSW,248,18.0,24.0,70,0.00,,,0.00,meteohub,2013-05-29 01:16:00,
2013-05-29 14:22:00,55.0,44.6,29.91,West,259,11.0,22.0,68,0.00,,,0.00,meteohub,2013-05-29 01:22:00,
2013-05-29 14:27:00,55.2,44.8,29.91,West,275,6.0,22.0,68,0.00,,,0.00,meteohub,2013-05-29 01:27:00,
2013-05-29 14:32:00,55.8,45.3,29.91,SW,227,6.0,19.0,68,0.00,,,0.00,meteohub,2013-05-29 01:32:00,
2013-05-29 14:37:00,55.2,44.8,29.91,West,261,15.0,20.0,68,0.00,,,0.00,meteohub,2013-05-29 01:37:00,
2013-05-29 14:42:00,54.9,46.0,29.91,WSW,256,14.0,20.0,72,0.00,,,0.00,meteohub,2013-05-29 01:42:00,
2013-05-29 14:47:00,54.3,45.5,29.90,SW,220,4.0,20.0,72,0.00,,,0.00,meteohub,2013-05-29 01:47:00,
2013-05-29 14:52:00,54.1,45.7,29.90,WSW,255,5.0,19.0,73,0.00,,,0.00,meteohub,2013-05-29 01:52:00,
2013-05-29 14:57:00,54.0,45.9,29.90,West,260,6.0,17.0,74,0.00,,,0.00,meteohub,2013-05-29 01:57:00,
2013-05-29 15:02:00,54.0,45.1,29.89,West,269,5.0,14.0,72,0.00,,,0.00,meteohub,2013-05-29 02:02:00,
2013-05-29 15:07:00,53.8,45.7,29.89,SW,229,4.0,14.0,74,0.00,,,0.00,meteohub,2013-05-29 02:07:00,
2013-05-29 15:12:00,53.4,46.0,29.89,South,174,4.0,11.0,76,0.00,,,0.00,meteohub,2013-05-29 02:12:00,
2013-05-29 15:17:00,53.4,46.4,29.88,SW,229,2.0,10.0,77,0.00,,,0.00,meteohub,2013-05-29 02:17:00,
2013-05-29 15:22:00,53.6,46.2,29.88,SW,218,2.0,8.0,76,0.00,,,0.00,meteohub,2013-05-29 02:22:00,
2013-05-29 15:27:00,53.6,45.5,29.88,WSW,246,2.0,9.0,74,0.00,,,0.00,meteohub,2013-05-29 02:27:00,
2013-05-29 15:32:00,53.2,46.2,29.87,WSW,241,2.0,9.0,77,0.00,,,0.00,meteohub,2013-05-29 02:32:00,
2013-05-29 15:37:00,53.1,46.0,29.87,SW,217,2.0,5.0,77,0.00,,,0.00,meteohub,2013-05-29 02:37:00,
2013-05-29 15:42:00,52.9,45.9,29.87,SW,216,1.0,5.0,77,0.00,,,0.00,meteohub,2013-05-29 02:42:00,
2013-05-29 15:47:00,52.7,46.0,29.86,SW,219,2.0,5.0,78,0.00,,,0.00,meteohub,2013-05-29 02:47:00,
2013-05-29 15:52:00,52.5,45.5,29.86,West,265,5.0,5.0,77,0.00,,,0.00,meteohub,2013-05-29 02:52:00,
2013-05-29 15:57:00,52.3,45.3,29.86,West,263,7.0,10.0,77,0.00,,,0.00,meteohub,2013-05-29 02:57:00,
2013-05-29 16:02:00,52.3,45.3,29.86,West,265,4.0,10.0,77,0.00,,,0.00,meteohub,2013-05-29 03:02:00,
2013-05-29 16:08:00,52.2,45.1,29.86,West,263,6.0,10.0,77,0.00,,,0.00,meteohub,2013-05-29 03:08:00,
2013-05-29 16:13:00,52.2,45.5,29.85,West,275,8.0,10.0,78,0.00,,,0.00,meteohub,2013-05-29 03:13:00,
2013-05-29 16:18:00,52.0,45.3,29.85,West,274,6.0,10.0,78,0.00,,,0.00,meteohub,2013-05-29 03:18:00,
2013-05-29 16:23:00,52.0,45.3,29.85,West,276,7.0,10.0,78,0.00,,,0.00,meteohub,2013-05-29 03:23:00,
2013-05-29 16:28:00,51.6,45.0,29.84,West,277,7.0,8.0,78,0.00,,,0.00,meteohub,2013-05-29 03:28:00,
2013-05-29 16:33:00,51.6,45.3,29.84,West,260,7.0,8.0,79,0.00,,,0.00,meteohub,2013-05-29 03:33:00,
2013-05-29 16:38:00,51.6,45.0,29.84,West,271,7.0,8.0,78,0.00,,,0.00,meteohub,2013-05-29 03:38:00,
2013-05-29 16:43:00,51.6,45.0,29.84,West,269,8.0,10.0,78,0.00,,,0.00,meteohub,2013-05-29 03:43:00,
2013-05-29 16:48:00,51.6,45.0,29.84,West,272,7.0,10.0,78,0.00,,,0.00,meteohub,2013-05-29 03:48:00,
2013-05-29 16:53:00,51.6,45.0,29.83,West,272,4.0,10.0,78,0.00,,,0.00,meteohub,2013-05-29 03:53:00,
2013-05-29 16:58:00,51.6,44.6,29.83,West,259,3.0,9.0,77,0.00,,,0.00,meteohub,2013-05-29 03:58:00,
2013-05-29 17:01:00,51.6,44.6,29.83,SW,226,4.0,9.0,77,0.00,,,0.00,meteohub,2013-05-29 04:01:00,
2013-05-29 17:02:00,51.6,44.6,29.83,SW,222,3.0,9.0,77,0.00,,,0.00,meteohub,2013-05-29 04:02:00,
2013-05-29 17:03:00,51.6,45.0,29.83,WSW,250,2.0,9.0,78,0.00,,,0.00,meteohub,2013-05-29 04:03:00,
2013-05-29 17:04:00,51.6,45.0,29.83,WSW,243,3.0,9.0,78,0.00,,,0.00,meteohub,2013-05-29 04:04:00,
2013-05-29 17:05:00,51.6,45.0,29.83,SW,229,2.0,9.0,78,0.00,,,0.00,meteohub,2013-05-29 04:05:00,
2013-05-29 17:10:00,51.6,45.0,29.83,WSW,247,2.0,6.0,78,0.00,,,0.00,meteohub,2013-05-29 04:10:00,
2013-05-29 17:15:00,51.6,44.6,29.83,West,271,3.0,5.0,77,0.00,,,0.00,meteohub,2013-05-29 04:15:00,
2013-05-29 17:20:00,51.6,44.6,29.83,WNW,282,4.0,5.0,77,0.00,,,0.00,meteohub,2013-05-29 04:20:00,
2013-05-29 17:25:00,51.6,44.2,29.83,West,274,5.0,5.0,76,0.00,,,0.00,meteohub,2013-05-29 04:25:00,
2013-05-29 17:30:00,51.6,44.6,29.83,WNW,282,3.0,5.0,77,0.00,,,0.00,meteohub,2013-05-29 04:30:00,
2013-05-29 17:35:00,51.6,44.6,29.83,WNW,293,4.0,5.0,77,0.00,,,0.00,meteohub,2013-05-29 04:35:00,
2013-05-29 17:40:00,51.6,45.0,29.83,NW,304,3.0,5.0,78,0.00,,,0.00,meteohub,2013-05-29 04:40:00,
2013-05-29 17:45:00,51.3,45.0,29.82,NW,304,4.0,5.0,79,0.00,,,0.00,meteohub,2013-05-29 04:45:00,
2013-05-29 17:50:00,50.7,45.1,29.82,West,276,5.0,5.0,81,0.00,,,0.01,meteohub,2013-05-29 04:50:00,
2013-05-29 17:55:00,50.4,45.1,29.82,NW,304,2.0,6.0,82,0.01,,,0.01,meteohub,2013-05-29 04:55:00,
2013-05-29 18:00:00,50.2,45.5,29.81,NNW,329,0.0,6.0,84,0.01,,,0.01,meteohub,2013-05-29 05:00:00,
2013-05-29 18:05:00,49.8,45.5,29.81,NNW,329,0.0,6.0,85,0.01,,,0.01,meteohub,2013-05-29 05:05:00,
2013-05-29 18:10:00,49.8,45.5,29.81,ESE,117,4.0,4.0,85,0.01,,,0.01,meteohub,2013-05-29 05:10:00,
2013-05-29 18:15:00,49.8,45.5,29.81,East,84,4.0,8.0,85,0.01,,,0.01,meteohub,2013-05-29 05:15:00,
2013-05-29 18:20:00,49.6,45.7,29.81,East,89,4.0,8.0,86,0.01,,,0.01,meteohub,2013-05-29 05:20:00,
2013-05-29 18:26:00,49.5,45.5,29.81,East,94,3.0,8.0,86,0.01,,,0.01,meteohub,2013-05-29 05:26:00,
2013-05-29 18:31:00,49.6,45.7,29.80,East,84,9.0,9.0,86,0.02,,,0.02,meteohub,2013-05-29 05:31:00,
2013-05-29 18:36:00,49.5,45.7,29.80,ENE,76,10.0,11.0,87,0.02,,,0.02,meteohub,2013-05-29 05:36:00,
2013-05-29 18:41:00,49.3,45.9,29.80,East,89,6.0,11.0,88,0.02,,,0.02,meteohub,2013-05-29 05:41:00,
2013-05-29 18:46:00,48.9,45.5,29.80,East,89,5.0,11.0,88,0.02,,,0.02,meteohub,2013-05-29 05:46:00,
2013-05-29 18:51:00,48.9,45.5,29.80,East,89,6.0,10.0,88,0.01,,,0.02,meteohub,2013-05-29 05:51:00,
2013-05-29 18:56:00,49.1,46.0,29.80,East,91,6.0,8.0,89,0.02,,,0.03,meteohub,2013-05-29 05:56:00,
2013-05-29 19:01:00,49.3,45.9,29.80,East,92,5.0,7.0,88,0.03,,,0.04,meteohub,2013-05-29 06:01:00,
2013-05-29 19:06:00,49.1,46.0,29.79,East,88,6.0,7.0,89,0.04,,,0.05,meteohub,2013-05-29 06:06:00,
2013-05-29 19:11:00,48.9,46.0,29.80,ESE,103,4.0,6.0,90,0.06,,,0.07,meteohub,2013-05-29 06:11:00,
2013-05-29 19:16:00,48.7,45.9,29.80,ESE,111,3.0,6.0,90,0.08,,,0.08,meteohub,2013-05-29 06:16:00,
2013-05-29 19:21:00,48.6,45.7,29.80,WSW,257,1.0,6.0,90,0.09,,,0.10,meteohub,2013-05-29 06:21:00,
2013-05-29 19:26:00,48.6,46.0,29.80,West,262,4.0,4.0,91,0.11,,,0.12,meteohub,2013-05-29 06:26:00,
2013-05-29 19:31:00,48.2,46.0,29.80,SSW,194,1.0,5.0,92,0.10,,,0.12,meteohub,2013-05-29 06:31:00,
2013-05-29 19:36:00,48.0,46.0,29.78,East,90,7.0,7.0,93,0.11,,,0.13,meteohub,2013-05-29 06:36:00,
2013-05-29 19:41:00,48.2,46.2,29.77,East,90,8.0,8.0,93,0.12,,,0.14,meteohub,2013-05-29 06:41:00,
2013-05-29 19:46:00,47.8,46.2,29.77,East,89,8.0,9.0,94,0.12,,,0.14,meteohub,2013-05-29 06:46:00,
2013-05-29 19:51:00,47.5,46.0,29.77,East,88,6.0,10.0,95,0.11,,,0.14,meteohub,2013-05-29 06:51:00,
2013-05-29 19:56:00,47.5,46.0,29.78,East,88,0.0,10.0,95,0.11,,,0.14,meteohub,2013-05-29 06:56:00,
2013-05-29 20:01:00,47.8,46.4,29.77,ENE,78,7.0,9.0,95,0.10,,,0.14,meteohub,2013-05-29 07:01:00,
2013-05-29 20:06:00,47.8,46.2,29.78,West,260,1.0,7.0,94,0.09,,,0.15,meteohub,2013-05-29 07:06:00,
2013-05-29 20:11:00,48.0,46.4,29.78,SSW,207,2.0,7.0,94,0.08,,,0.16,meteohub,2013-05-29 07:11:00,
2013-05-29 20:16:00,47.8,46.4,29.78,South,177,2.0,7.0,95,0.08,,,0.17,meteohub,2013-05-29 07:16:00,
2013-05-29 20:22:00,47.5,46.4,29.77,SSE,158,1.0,6.0,96,0.07,,,0.18,meteohub,2013-05-29 07:22:00,
2013-05-29 20:27:00,47.3,46.6,29.77,SW,214,2.0,6.0,97,0.09,,,0.21,meteohub,2013-05-29 07:27:00,
2013-05-29 20:32:00,47.1,46.4,29.77,South,184,3.0,6.0,97,0.10,,,0.23,meteohub,2013-05-29 07:32:00,
2013-05-29 20:37:00,47.1,46.6,29.77,SSE,149,4.0,6.0,98,0.11,,,0.25,meteohub,2013-05-29 07:37:00,
2013-05-29 20:42:00,47.1,46.6,29.76,SE,136,5.0,6.0,98,0.13,,,0.27,meteohub,2013-05-29 07:42:00,
2013-05-29 20:47:00,47.1,46.6,29.76,SE,129,7.0,7.0,98,0.13,,,0.27,meteohub,2013-05-29 07:47:00,
2013-05-29 20:52:00,47.1,46.6,29.76,SE,134,6.0,8.0,98,0.13,,,0.27,meteohub,2013-05-29 07:52:00,
2013-05-29 20:57:00,47.3,46.6,29.75,SE,126,11.0,11.0,97,0.14,,,0.28,meteohub,2013-05-29 07:57:00,
2013-05-29 21:02:00,47.5,46.8,29.75,SE,134,10.0,12.0,97,0.13,,,0.28,meteohub,2013-05-29 08:02:00,
2013-05-29 21:08:00,47.5,46.8,29.75,SE,126,12.0,12.0,97,0.13,,,0.28,meteohub,2013-05-29 08:08:00,
2013-05-29 21:13:00,47.3,46.6,29.74,SE,133,12.0,12.0,97,0.12,,,0.28,meteohub,2013-05-29 08:13:00,
2013-05-29 21:18:00,47.7,47.1,29.74,South,181,5.0,14.0,98,0.11,,,0.28,meteohub,2013-05-29 08:18:00,
2013-05-29 21:23:00,47.8,46.9,29.74,South,175,6.0,14.0,97,0.09,,,0.28,meteohub,2013-05-29 08:23:00,
2013-05-29 21:28:00,48.0,47.1,29.74,ENE,77,5.0,14.0,97,0.06,,,0.28,meteohub,2013-05-29 08:28:00,
2013-05-29 21:33:00,48.0,46.9,29.73,East,96,4.0,9.0,96,0.04,,,0.28,meteohub,2013-05-29 08:33:00,
2013-05-29 21:38:00,48.0,47.1,29.73,SE,126,2.0,9.0,97,0.02,,,0.28,meteohub,2013-05-29 08:38:00,
2013-05-29 21:43:00,47.8,46.9,29.73,SW,226,9.0,10.0,97,0.01,,,0.28,meteohub,2013-05-29 08:43:00,
2013-05-29 21:48:00,47.8,46.9,29.72,ESE,113,5.0,10.0,97,0.01,,,0.28,meteohub,2013-05-29 08:48:00,
2013-05-29 21:53:00,48.2,47.3,29.72,South,176,6.0,11.0,97,0.01,,,0.28,meteohub,2013-05-29 08:53:00,
2013-05-29 21:58:00,48.2,47.1,29.72,SE,134,4.0,16.0,96,0.01,,,0.28,meteohub,2013-05-29 08:58:00,
2013-05-29 22:03:00,48.2,47.3,29.72,South,176,5.0,17.0,97,0.01,,,0.29,meteohub,2013-05-29 09:03:00,
2013-05-29 22:08:00,48.4,47.5,29.71,SSE,156,11.0,17.0,97,0.01,,,0.29,meteohub,2013-05-29 09:08:00,
2013-05-29 22:13:00,48.7,47.7,29.71,South,187,7.0,17.0,96,0.01,,,0.29,meteohub,2013-05-29 09:13:00,
2013-05-29 22:18:00,48.7,47.7,29.71,SSE,150,7.0,17.0,96,0.01,,,0.29,meteohub,2013-05-29 09:18:00,
2013-05-29 22:23:00,48.7,47.7,29.71,SSE,156,4.0,17.0,96,0.02,,,0.30,meteohub,2013-05-29 09:23:00,
2013-05-29 22:28:00,48.7,47.7,29.70,SE,143,5.0,15.0,96,0.03,,,0.30,meteohub,2013-05-29 09:28:00,
2013-05-29 22:33:00,48.7,47.8,29.70,WSW,248,12.0,12.0,97,0.03,,,0.31,meteohub,2013-05-29 09:33:00,
2013-05-29 22:38:00,48.9,48.0,29.69,West,266,7.0,14.0,97,0.05,,,0.33,meteohub,2013-05-29 09:38:00,
2013-05-29 22:43:00,48.9,48.0,29.69,North,352,4.0,16.0,97,0.05,,,0.33,meteohub,2013-05-29 09:43:00,
2013-05-29 22:48:00,48.7,47.8,29.69,WSW,257,12.0,16.0,97,0.05,,,0.33,meteohub,2013-05-29 09:48:00,
2013-05-29 22:53:00,48.7,48.2,29.69,SW,226,8.0,16.0,98,0.05,,,0.33,meteohub,2013-05-29 09:53:00,
2013-05-29 22:58:00,48.7,48.2,29.69,SSE,147,13.0,21.0,98,0.04,,,0.33,meteohub,2013-05-29 09:58:00,
2013-05-29 23:03:00,48.7,48.2,29.68,SSW,209,15.0,21.0,98,0.04,,,0.33,meteohub,2013-05-29 10:03:00,
2013-05-29 23:08:00,48.9,48.4,29.69,WSW,255,21.0,29.0,98,0.04,,,0.33,meteohub,2013-05-29 10:08:00,
2013-05-29 23:14:00,48.9,48.4,29.68,SW,236,13.0,29.0,98,0.04,,,0.33,meteohub,2013-05-29 10:14:00,
2013-05-29 23:19:00,48.9,48.4,29.68,South,170,7.0,29.0,98,0.03,,,0.33,meteohub,2013-05-29 10:19:00,
2013-05-29 23:24:00,49.1,48.6,29.68,WSW,251,24.0,27.0,98,0.03,,,0.33,meteohub,2013-05-29 10:24:00,
2013-05-29 23:29:00,49.3,48.7,29.68,SSW,202,9.0,26.0,98,0.02,,,0.33,meteohub,2013-05-29 10:29:00,
2013-05-29 23:34:00,49.5,48.6,29.67,SSW,211,9.0,30.0,97,0.01,,,0.33,meteohub,2013-05-29 10:34:00,
2013-05-29 23:39:00,49.6,48.7,29.67,NNE,14,9.0,30.0,97,0.01,,,0.34,meteohub,2013-05-29 10:39:00,
2013-05-29 23:44:00,49.8,48.7,29.67,SSW,209,19.0,30.0,96,0.01,,,0.34,meteohub,2013-05-29 10:44:00,
2013-05-29 23:49:00,50.2,48.7,29.67,South,179,19.0,28.0,95,0.01,,,0.34,meteohub,2013-05-29 10:49:00,
2013-05-29 23:54:00,50.2,48.7,29.67,SW,228,24.0,35.0,95,0.01,,,0.34,meteohub,2013-05-29 10:54:00,
2013-05-29 23:59:00,50.2,48.7,29.67,SSE,152,8.0,35.0,95,0.01,,,0.34,meteohub,2013-05-29 10:59:00,